Time;durP1;ratioP1;P1;durP2;ratioP2;P2;SDS_P1;SDS_P2;PMS_P1;PMS_P2;Temp;Humidity;BMP_temperature;BMP_pressure;BME280_temperature;BME280_humidity;BME280_pressure;Samples;Min_cycle;Max_cycle;Signal;HPM_P1;HPM_P2
2023/10/23 00:00:55;;;;;;;9.83;3.93;;;7.30;99.90;;;;;;5059022;28;20546;-67
2023/10/23 00:03:23;;;;;;;9.57;4.40;;;7.30;99.90;;;;;;5058754;28;20459;-65
2023/10/23 00:05:51;;;;;;;11.33;4.10;;;7.20;99.90;;;;;;5064714;28;20564;-65
2023/10/23 00:08:19;;;;;;;15.57;4.60;;;7.10;99.90;;;;;;5050358;28;20539;-64
2023/10/23 00:10:47;;;;;;;13.07;4.30;;;7.10;99.90;;;;;;5061516;28;20462;-65
2023/10/23 00:13:14;;;;;;;11.73;4.30;;;7.00;99.90;;;;;;5058149;28;20504;-66
2023/10/23 00:15:43;;;;;;;13.47;5.40;;;7.00;99.90;;;;;;5057961;28;20460;-66
2023/10/23 00:18:12;;;;;;;9.60;4.27;;;6.90;99.90;;;;;;5058140;28;20447;-65
2023/10/23 00:20:40;;;;;;;11.17;4.40;;;6.80;99.90;;;;;;5059270;28;20533;-67
2023/10/23 00:23:08;;;;;;;12.53;5.03;;;6.80;99.90;;;;;;5062468;28;20455;-66
2023/10/23 00:25:36;;;;;;;13.73;4.70;;;6.80;99.90;;;;;;5059352;28;20481;-66
2023/10/23 00:28:04;;;;;;;10.67;4.30;;;6.90;99.90;;;;;;5058151;28;20546;-67
2023/10/23 00:30:35;;;;;;;14.13;4.60;;;6.90;99.90;;;;;;5060862;28;20483;-66
2023/10/23 00:33:03;;;;;;;14.87;4.53;;;6.80;99.90;;;;;;5060721;28;20450;-65
2023/10/23 00:35:33;;;;;;;12.23;4.63;;;6.80;99.90;;;;;;5055409;28;20466;-65
2023/10/23 00:38:00;;;;;;;10.43;4.93;;;6.70;99.90;;;;;;5058961;28;20443;-66
2023/10/23 00:40:30;;;;;;;9.57;3.97;;;6.70;99.90;;;;;;5055677;28;20458;-66
2023/10/23 00:42:58;;;;;;;11.50;4.40;;;6.70;99.90;;;;;;5057655;28;20451;-66
2023/10/23 00:45:26;;;;;;;10.93;3.97;;;6.70;99.90;;;;;;5057614;28;20859;-64
2023/10/23 00:47:54;;;;;;;11.50;4.70;;;6.70;99.90;;;;;;5057801;28;20564;-66
2023/10/23 00:50:22;;;;;;;11.30;4.97;;;6.80;99.90;;;;;;5054393;28;20447;-65
2023/10/23 00:52:51;;;;;;;10.80;4.17;;;6.60;99.90;;;;;;5055681;28;20521;-65
2023/10/23 00:55:19;;;;;;;14.63;4.67;;;6.60;99.90;;;;;;5052618;28;20467;-66
2023/10/23 00:57:47;;;;;;;11.33;4.47;;;6.50;99.90;;;;;;5057823;28;20843;-66
2023/10/23 01:00:15;;;;;;;10.20;4.50;;;6.40;99.90;;;;;;5054508;28;21217;-67
2023/10/23 01:02:43;;;;;;;12.10;5.20;;;6.50;99.90;;;;;;5049499;28;20474;-66
2023/10/23 01:05:11;;;;;;;11.77;4.90;;;6.40;99.90;;;;;;5058983;28;20842;-66
2023/10/23 01:07:39;;;;;;;14.87;5.27;;;6.50;99.90;;;;;;5060052;28;20454;-66
2023/10/23 01:10:09;;;;;;;13.00;4.60;;;6.40;99.90;;;;;;5059581;28;20628;-66
2023/10/23 01:12:37;;;;;;;10.17;4.23;;;6.40;99.90;;;;;;5058353;28;21081;-66
2023/10/23 01:15:07;;;;;;;13.30;5.10;;;6.50;99.90;;;;;;5061295;28;20453;-66
2023/10/23 01:17:35;;;;;;;11.53;4.80;;;6.40;99.90;;;;;;5060331;28;20815;-66
2023/10/23 01:20:03;;;;;;;9.27;4.03;;;6.30;99.90;;;;;;5062154;28;20466;-66
2023/10/23 01:22:31;;;;;;;11.27;4.90;;;6.30;99.90;;;;;;5064493;28;20504;-65
2023/10/23 01:25:00;;;;;;;13.57;4.73;;;6.30;99.90;;;;;;5061552;28;20540;-66
2023/10/23 01:27:30;;;;;;;11.67;4.90;;;6.30;99.90;;;;;;5058871;28;20467;-65
2023/10/23 01:29:58;;;;;;;17.93;5.00;;;6.20;99.90;;;;;;5062565;28;20452;-65
2023/10/23 01:32:26;;;;;;;12.33;5.10;;;6.20;99.90;;;;;;5064379;28;20447;-65
2023/10/23 01:34:53;;;;;;;12.03;4.60;;;6.10;99.90;;;;;;5059644;28;20484;-66
2023/10/23 01:37:21;;;;;;;11.03;4.27;;;6.10;99.90;;;;;;5061329;28;20538;-65
2023/10/23 01:39:49;;;;;;;9.17;4.17;;;6.20;99.90;;;;;;5062289;28;20459;-67
2023/10/23 01:42:17;;;;;;;11.00;4.13;;;6.20;99.90;;;;;;5061818;28;20457;-66
2023/10/23 01:44:46;;;;;;;10.57;4.20;;;6.10;99.90;;;;;;5060147;28;20980;-66
2023/10/23 01:47:14;;;;;;;9.80;4.53;;;6.00;99.90;;;;;;5062448;28;20566;-66
2023/10/23 01:49:42;;;;;;;11.17;4.30;;;6.10;99.90;;;;;;5064307;28;20452;-65
2023/10/23 01:52:10;;;;;;;10.70;3.90;;;6.00;99.90;;;;;;5065833;28;20451;-65
2023/10/23 01:54:38;;;;;;;13.47;4.77;;;6.00;99.90;;;;;;5059021;28;20514;-66
2023/10/23 01:57:06;;;;;;;10.93;3.93;;;6.20;99.90;;;;;;5059724;28;20474;-65
2023/10/23 01:59:34;;;;;;;9.80;3.90;;;6.20;99.90;;;;;;5060665;28;20450;-65
2023/10/23 02:02:04;;;;;;;14.40;4.17;;;6.20;99.90;;;;;;5061612;28;20460;-65
2023/10/23 02:04:32;;;;;;;11.90;4.10;;;6.10;99.90;;;;;;5063469;28;20454;-66
2023/10/23 02:07:00;;;;;;;11.30;4.23;;;6.10;99.90;;;;;;5058499;28;20477;-65
2023/10/23 02:09:28;;;;;;;9.97;4.13;;;6.00;99.90;;;;;;5063702;28;20831;-66
2023/10/23 02:11:56;;;;;;;9.10;3.43;;;6.00;99.90;;;;;;5062768;28;20460;-64
2023/10/23 02:14:24;;;;;;;11.53;4.67;;;5.90;99.90;;;;;;5061264;28;20454;-65
2023/10/23 02:16:52;;;;;;;9.93;3.27;;;5.80;99.90;;;;;;5060212;28;20474;-65
2023/10/23 02:19:22;;;;;;;10.80;3.80;;;5.80;99.90;;;;;;5064879;28;20511;-65
2023/10/23 02:21:50;;;;;;;11.30;5.23;;;5.80;99.90;;;;;;5057603;28;20458;-65
2023/10/23 02:24:19;;;;;;;13.03;4.13;;;5.90;99.90;;;;;;5063442;28;20831;-66
2023/10/23 02:26:47;;;;;;;10.53;4.20;;;5.80;99.90;;;;;;5059434;28;20568;-66
2023/10/23 02:29:16;;;;;;;10.50;4.57;;;5.80;99.90;;;;;;5059724;28;20459;-65
2023/10/23 02:31:44;;;;;;;13.43;4.70;;;5.70;99.90;;;;;;5065172;28;20451;-65
2023/10/23 02:34:12;;;;;;;11.30;4.70;;;5.70;99.90;;;;;;5063395;28;20474;-65
2023/10/23 02:36:42;;;;;;;11.17;4.40;;;5.60;99.90;;;;;;5060631;28;20475;-66
2023/10/23 02:39:10;;;;;;;11.30;4.57;;;5.60;99.90;;;;;;5062000;28;20972;-66
2023/10/23 02:41:38;;;;;;;12.37;4.37;;;5.60;99.90;;;;;;5059267;28;20568;-66
2023/10/23 02:44:07;;;;;;;11.47;5.23;;;5.60;99.90;;;;;;5060715;28;20948;-68
2023/10/23 02:46:35;;;;;;;12.33;4.60;;;5.50;99.90;;;;;;5057399;28;20514;-66
2023/10/23 02:49:04;;;;;;;10.87;4.50;;;5.50;99.90;;;;;;5063652;28;20577;-65
2023/10/23 02:51:32;;;;;;;13.07;5.23;;;5.70;99.90;;;;;;5059048;28;20462;-66
2023/10/23 02:54:01;;;;;;;11.60;4.33;;;5.70;99.90;;;;;;5064596;28;21419;-65
2023/10/23 02:56:29;;;;;;;9.87;4.07;;;5.60;99.90;;;;;;5060362;28;20967;-65
2023/10/23 02:58:57;;;;;;;11.23;4.20;;;5.70;99.90;;;;;;5060265;28;20466;-65
2023/10/23 03:01:25;;;;;;;9.33;4.03;;;5.60;99.90;;;;;;5057333;28;21005;-66
2023/10/23 03:03:53;;;;;;;12.80;4.40;;;5.70;99.90;;;;;;5060539;28;20549;-66
2023/10/23 03:06:21;;;;;;;9.90;4.37;;;5.70;99.90;;;;;;5062224;28;20483;-66
2023/10/23 03:08:49;;;;;;;10.10;4.10;;;5.70;99.90;;;;;;5064591;28;20479;-65
2023/10/23 03:11:19;;;;;;;14.13;4.33;;;5.60;99.90;;;;;;5061141;28;20458;-66
2023/10/23 03:13:46;;;;;;;11.90;5.03;;;5.50;99.90;;;;;;5059113;28;20885;-65
2023/10/23 03:16:15;;;;;;;11.00;3.70;;;5.50;99.90;;;;;;5065371;28;20505;-63
2023/10/23 03:18:44;;;;;;;9.40;3.60;;;5.50;99.90;;;;;;5067232;28;20981;-65
2023/10/23 03:21:12;;;;;;;9.43;3.57;;;5.50;99.90;;;;;;5069347;28;20476;-65
2023/10/23 03:23:40;;;;;;;10.80;4.40;;;5.40;99.90;;;;;;5069260;28;20881;-65
2023/10/23 03:26:08;;;;;;;9.40;3.97;;;5.40;99.90;;;;;;5069039;28;20468;-66
2023/10/23 03:28:37;;;;;;;11.37;3.50;;;5.30;99.90;;;;;;5069303;28;20452;-66
2023/10/23 03:31:05;;;;;;;11.10;4.40;;;5.30;99.90;;;;;;5068699;28;20531;-65
2023/10/23 03:33:33;;;;;;;11.47;4.47;;;5.20;99.90;;;;;;5068699;28;20450;-65
2023/10/23 03:36:01;;;;;;;12.73;3.57;;;5.20;99.90;;;;;;5068529;28;20460;-66
2023/10/23 03:38:30;;;;;;;9.73;3.70;;;5.30;99.90;;;;;;5068618;28;20456;-66
2023/10/23 03:40:59;;;;;;;10.17;3.57;;;5.30;99.90;;;;;;5068760;28;20456;-64
2023/10/23 03:43:27;;;;;;;10.07;5.47;;;5.30;99.90;;;;;;5068834;28;20494;-65
2023/10/23 03:45:56;;;;;;;11.43;3.53;;;5.40;99.90;;;;;;5068682;28;20475;-65
2023/10/23 03:48:24;;;;;;;12.23;3.80;;;5.40;99.90;;;;;;5068554;28;20935;-65
2023/10/23 03:50:52;;;;;;;13.50;3.60;;;5.30;99.90;;;;;;5068568;28;20452;-66
2023/10/23 03:53:20;;;;;;;9.37;3.43;;;5.40;99.90;;;;;;5068706;28;20450;-65
2023/10/23 03:55:48;;;;;;;9.90;3.43;;;5.40;99.90;;;;;;5064644;28;20477;-66
2023/10/23 03:58:16;;;;;;;10.83;4.90;;;5.30;99.90;;;;;;5058396;28;20465;-66
2023/10/23 04:00:44;;;;;;;9.60;3.47;;;5.20;99.90;;;;;;5065411;28;21023;-65
2023/10/23 04:03:13;;;;;;;10.20;3.60;;;5.20;99.90;;;;;;5068082;28;20453;-66
2023/10/23 04:05:41;;;;;;;9.83;3.37;;;5.30;99.90;;;;;;5068411;28;20556;-65
2023/10/23 04:08:09;;;;;;;11.97;3.63;;;5.20;99.90;;;;;;5061256;28;20485;-65
2023/10/23 04:10:37;;;;;;;8.50;3.57;;;5.20;99.90;;;;;;5066149;28;20488;-65
2023/10/23 04:13:05;;;;;;;13.83;3.90;;;5.20;99.90;;;;;;5061280;28;20502;-65
2023/10/23 04:15:33;;;;;;;9.30;3.40;;;5.20;99.90;;;;;;5059863;28;20487;-65
2023/10/23 04:18:01;;;;;;;9.53;3.70;;;5.20;99.90;;;;;;5067271;28;20484;-66
2023/10/23 04:20:30;;;;;;;13.73;3.47;;;5.10;99.90;;;;;;5068338;28;20441;-65
2023/10/23 04:22:58;;;;;;;9.67;3.67;;;5.10;99.90;;;;;;5067804;28;20448;-65
2023/10/23 04:25:26;;;;;;;9.20;3.97;;;5.00;99.90;;;;;;5068047;28;20468;-65
2023/10/23 04:27:54;;;;;;;10.43;3.40;;;5.10;99.90;;;;;;5068030;28;20931;-65
2023/10/23 04:30:22;;;;;;;8.33;3.10;;;5.10;99.90;;;;;;5068102;28;20472;-65
2023/10/23 04:32:50;;;;;;;10.60;3.70;;;5.10;99.90;;;;;;5068602;28;20458;-65
2023/10/23 04:35:18;;;;;;;9.53;3.43;;;5.00;99.90;;;;;;5068269;28;20833;-65
2023/10/23 04:37:47;;;;;;;11.97;4.50;;;5.00;99.90;;;;;;5063767;28;20462;-66
2023/10/23 04:40:15;;;;;;;8.97;3.90;;;5.00;99.90;;;;;;5067516;28;20532;-66
2023/10/23 04:42:43;;;;;;;11.40;4.10;;;4.90;99.90;;;;;;5067385;28;20513;-68
2023/10/23 04:45:11;;;;;;;10.33;3.80;;;4.90;99.90;;;;;;5070689;28;20519;-69
2023/10/23 04:47:39;;;;;;;12.07;3.97;;;4.90;99.90;;;;;;5072148;28;20895;-66
2023/10/23 04:50:08;;;;;;;10.20;5.07;;;4.90;99.90;;;;;;5071680;28;20946;-66
2023/10/23 04:52:36;;;;;;;11.13;3.30;;;5.10;99.90;;;;;;5071447;28;20977;-66
2023/10/23 04:55:06;;;;;;;10.40;3.87;;;5.10;99.90;;;;;;5071812;28;20447;-66
2023/10/23 04:57:34;;;;;;;9.53;3.70;;;5.00;99.90;;;;;;5066082;28;20497;-65
2023/10/23 05:00:03;;;;;;;12.37;4.93;;;5.00;99.90;;;;;;5061008;28;20511;-66
2023/10/23 05:02:31;;;;;;;12.30;4.00;;;4.80;99.90;;;;;;5060155;28;20435;-67
2023/10/23 05:04:59;;;;;;;9.50;3.23;;;4.80;99.90;;;;;;5065232;28;20449;-67
2023/10/23 05:07:27;;;;;;;9.23;3.10;;;4.80;99.90;;;;;;5067928;28;20477;-68
2023/10/23 05:09:55;;;;;;;9.50;3.40;;;4.80;99.90;;;;;;5071166;28;20964;-67
2023/10/23 05:12:24;;;;;;;8.87;3.47;;;4.80;99.90;;;;;;5067780;28;20496;-67
2023/10/23 05:14:52;;;;;;;9.53;3.60;;;4.80;99.90;;;;;;5060672;28;20465;-67
2023/10/23 05:17:21;;;;;;;9.27;3.73;;;4.70;99.90;;;;;;5062835;28;20477;-68
2023/10/23 05:19:49;;;;;;;10.03;3.87;;;4.60;99.90;;;;;;5070891;28;20499;-67
2023/10/23 05:22:17;;;;;;;8.60;3.40;;;4.50;99.90;;;;;;5070206;28;20514;-65
2023/10/23 05:24:46;;;;;;;8.30;3.30;;;4.50;99.90;;;;;;5072575;28;20852;-67
2023/10/23 05:27:15;;;;;;;8.93;3.40;;;4.70;99.90;;;;;;5070690;28;20973;-67
2023/10/23 05:29:44;;;;;;;11.03;3.40;;;4.80;99.90;;;;;;5070925;28;21227;-66
2023/10/23 05:32:12;;;;;;;9.47;3.43;;;4.80;99.90;;;;;;5062587;28;20495;-66
2023/10/23 05:34:44;;;;;;;8.63;3.63;;;4.70;99.90;;;;;;5070369;28;20983;-65
2023/10/23 05:37:12;;;;;;;10.00;3.63;;;4.60;99.90;;;;;;5071393;28;20489;-66
2023/10/23 05:39:40;;;;;;;8.40;3.20;;;4.60;99.90;;;;;;5067339;28;21126;-65
2023/10/23 05:42:08;;;;;;;8.97;3.63;;;4.60;99.90;;;;;;5070438;28;20439;-65
2023/10/23 05:44:36;;;;;;;10.40;3.60;;;4.60;99.90;;;;;;5071091;28;20444;-67
2023/10/23 05:47:06;;;;;;;8.90;3.07;;;4.60;99.90;;;;;;5070652;28;20464;-67
2023/10/23 05:49:34;;;;;;;9.83;3.53;;;4.60;99.90;;;;;;5071024;28;20451;-66
2023/10/23 05:52:03;;;;;;;9.53;3.60;;;4.60;99.90;;;;;;5070647;28;20461;-66
2023/10/23 05:54:31;;;;;;;9.80;3.50;;;4.60;99.90;;;;;;5070453;28;20476;-67
2023/10/23 05:56:59;;;;;;;11.33;4.23;;;4.70;99.90;;;;;;5070795;28;20815;-67
2023/10/23 05:59:27;;;;;;;9.47;3.30;;;4.70;99.90;;;;;;5071093;28;20486;-65
2023/10/23 06:01:55;;;;;;;8.47;3.53;;;4.60;99.90;;;;;;5070177;28;20457;-67
2023/10/23 06:04:24;;;;;;;14.80;4.53;;;4.60;99.90;;;;;;5070798;28;20472;-67
2023/10/23 06:06:52;;;;;;;9.50;3.43;;;4.50;99.90;;;;;;5070585;28;20488;-68
2023/10/23 06:09:20;;;;;;;8.90;3.23;;;4.60;99.90;;;;;;5070713;28;20487;-67
2023/10/23 06:11:48;;;;;;;16.40;3.90;;;4.80;99.90;;;;;;5070292;28;21033;-67
2023/10/23 06:14:16;;;;;;;9.90;3.70;;;4.80;99.90;;;;;;5070401;28;20530;-66
2023/10/23 06:16:43;;;;;;;10.23;3.80;;;4.70;99.90;;;;;;5070466;28;21052;-67
2023/10/23 06:19:11;;;;;;;10.77;3.57;;;4.70;99.90;;;;;;5062396;28;20567;-65
2023/10/23 06:21:41;;;;;;;11.90;4.20;;;4.70;99.90;;;;;;5070329;28;20449;-66
2023/10/23 06:24:09;;;;;;;11.27;4.00;;;4.60;99.90;;;;;;5070295;28;20863;-66
2023/10/23 06:26:37;;;;;;;10.93;4.20;;;4.70;99.90;;;;;;5070630;28;20462;-68
2023/10/23 06:29:05;;;;;;;11.60;4.43;;;4.70;99.90;;;;;;5070105;28;20845;-67
2023/10/23 06:31:33;;;;;;;11.57;4.60;;;4.70;99.90;;;;;;5070192;28;20464;-67
2023/10/23 06:34:01;;;;;;;10.83;4.10;;;4.70;99.90;;;;;;5069925;28;20453;-67
2023/10/23 06:36:31;;;;;;;10.43;3.97;;;4.70;99.90;;;;;;5070253;28;20473;-67
2023/10/23 06:39:00;;;;;;;12.83;3.90;;;4.80;99.90;;;;;;5070678;28;20459;-67
2023/10/23 06:41:28;;;;;;;12.57;4.57;;;4.90;99.90;;;;;;5069751;28;20449;-65
2023/10/23 06:43:56;;;;;;;10.50;4.33;;;4.90;99.90;;;;;;5069849;28;20505;-66
2023/10/23 06:46:24;;;;;;;13.20;4.73;;;4.80;99.90;;;;;;5070191;28;20483;-66
2023/10/23 06:48:52;;;;;;;11.20;4.37;;;4.90;99.90;;;;;;5069942;28;20854;-66
2023/10/23 06:51:20;;;;;;;10.10;4.57;;;5.00;99.90;;;;;;5069766;28;20452;-66
2023/10/23 06:53:48;;;;;;;10.97;4.70;;;5.20;99.90;;;;;;5069682;28;20517;-66
2023/10/23 06:56:17;;;;;;;9.80;3.77;;;5.40;99.90;;;;;;5069892;28;20476;-66
2023/10/23 06:58:45;;;;;;;11.43;4.50;;;5.70;99.90;;;;;;5069861;28;20878;-67
2023/10/23 07:01:13;;;;;;;10.70;4.30;;;5.80;99.90;;;;;;5061352;28;21155;-67
2023/10/23 07:03:42;;;;;;;11.90;4.37;;;5.80;99.90;;;;;;5069726;28;20446;-66
2023/10/23 07:06:10;;;;;;;10.70;4.57;;;5.70;99.90;;;;;;5068984;28;20470;-67
2023/10/23 07:08:40;;;;;;;13.23;4.93;;;5.70;99.90;;;;;;5069792;28;20481;-66
2023/10/23 07:11:15;;;;;;;9.60;4.17;;;5.70;99.90;;;;;;5069101;28;21805;-67
2023/10/23 07:13:44;;;;;;;13.20;4.83;;;5.80;99.90;;;;;;5069564;28;20439;-66
2023/10/23 07:16:12;;;;;;;11.77;4.10;;;5.80;99.90;;;;;;5069476;28;20466;-67
2023/10/23 07:18:40;;;;;;;10.37;4.70;;;5.90;99.90;;;;;;5069387;28;20452;-66
2023/10/23 07:21:08;;;;;;;14.10;5.40;;;6.10;99.90;;;;;;5068786;28;20444;-66
2023/10/23 07:23:36;;;;;;;11.70;5.43;;;6.30;99.90;;;;;;5069289;28;20439;-66
2023/10/23 07:26:07;;;;;;;11.80;4.53;;;6.50;99.90;;;;;;5068786;28;20474;-66
2023/10/23 07:28:38;;;;;;;10.50;4.80;;;6.60;99.90;;;;;;5069235;28;20483;-65
2023/10/23 07:31:08;;;;;;;13.80;4.60;;;6.70;99.90;;;;;;5068746;28;20442;-67
2023/10/23 07:33:36;;;;;;;11.50;4.40;;;6.80;99.90;;;;;;5068966;28;20462;-65
2023/10/23 07:36:06;;;;;;;11.17;4.40;;;6.80;99.90;;;;;;5069037;28;20467;-66
2023/10/23 07:38:34;;;;;;;10.43;4.20;;;6.90;99.90;;;;;;5069271;28;20435;-67
2023/10/23 07:41:02;;;;;;;11.60;4.40;;;7.00;99.90;;;;;;5068683;28;20826;-66
2023/10/23 07:43:30;;;;;;;11.60;3.93;;;7.10;99.90;;;;;;5069026;28;20518;-67
2023/10/23 07:46:04;;;;;;;10.40;4.80;;;7.10;99.90;;;;;;5068442;28;20503;-68
2023/10/23 07:48:45;;;;;;;15.07;4.50;;;7.10;99.90;;;;;;5069077;28;21195;-66
2023/10/23 07:51:14;;;;;;;9.80;4.00;;;7.10;99.90;;;;;;5068447;28;20942;-67
2023/10/23 07:53:42;;;;;;;11.70;4.50;;;7.40;99.90;;;;;;5068795;28;20497;-67
2023/10/23 07:56:12;;;;;;;10.10;3.93;;;7.80;99.90;;;;;;5068697;28;20454;-67
2023/10/23 07:58:40;;;;;;;9.33;3.70;;;8.00;99.90;;;;;;5068742;28;20815;-68
2023/10/23 08:01:10;;;;;;;10.48;4.57;;;8.20;99.90;;;;;;5067974;28;20437;-67
2023/10/23 08:03:38;;;;;;;11.13;4.53;;;8.40;99.90;;;;;;5068769;28;20260;-68
2023/10/23 08:06:10;;;;;;;10.97;4.27;;;8.60;99.90;;;;;;5068669;28;20472;-68
2023/10/23 08:08:40;;;;;;;11.50;4.63;;;8.60;99.90;;;;;;5068818;28;20446;-65
2023/10/23 08:11:10;;;;;;;11.50;4.50;;;8.70;99.90;;;;;;5068247;28;20480;-65
2023/10/23 08:13:39;;;;;;;11.80;4.50;;;8.70;99.90;;;;;;5068854;28;20973;-65
2023/10/23 08:16:07;;;;;;;11.77;4.70;;;8.70;99.90;;;;;;5068637;28;20601;-66
2023/10/23 08:18:35;;;;;;;11.63;5.30;;;8.80;99.90;;;;;;5072606;28;20466;-66
2023/10/23 08:21:14;;;;;;;10.73;4.77;;;9.00;99.90;;;;;;5075036;28;20440;-70
2023/10/23 08:23:43;;;;;;;9.90;3.87;;;9.20;99.90;;;;;;5075021;28;20437;-67
2023/10/23 08:26:11;;;;;;;12.13;4.27;;;9.20;99.90;;;;;;5074994;28;20464;-67
2023/10/23 08:28:40;;;;;;;11.87;4.13;;;9.30;99.90;;;;;;5075349;28;20442;-66
2023/10/23 08:31:11;;;;;;;15.73;4.37;;;9.50;99.90;;;;;;5074887;28;20521;-66
2023/10/23 08:33:59;;;;;;;12.30;4.60;;;9.60;99.90;;;;;;5074959;28;20438;-66
2023/10/23 08:36:28;;;;;;;9.57;3.47;;;9.60;99.90;;;;;;5075233;28;20486;-65
2023/10/23 08:38:56;;;;;;;12.27;4.43;;;9.70;99.90;;;;;;5076192;28;20492;-67
2023/10/23 08:41:26;;;;;;;9.50;4.00;;;9.90;99.90;;;;;;5074523;28;21000;-67
2023/10/23 08:43:55;;;;;;;11.60;4.17;;;10.00;99.90;;;;;;5074702;28;20452;-66
2023/10/23 08:46:26;;;;;;;9.60;3.40;;;10.00;99.90;;;;;;5074825;28;20470;-67
2023/10/23 08:48:54;;;;;;;12.53;4.10;;;10.20;99.90;;;;;;5074651;28;20541;-66
2023/10/23 08:51:22;;;;;;;11.30;4.30;;;10.30;99.90;;;;;;5074769;28;20442;-66
2023/10/23 08:53:56;;;;;;;12.43;3.80;;;10.40;99.90;;;;;;5075010;28;20472;-67
2023/10/23 08:56:39;;;;;;;9.57;4.47;;;10.40;99.90;;;;;;5069912;28;21080;-66
2023/10/23 08:59:09;;;;;;;9.30;3.93;;;10.20;99.90;;;;;;5074742;28;20467;-66
2023/10/23 09:01:38;;;;;;;9.47;3.70;;;10.30;99.90;;;;;;5074723;28;20441;-66
2023/10/23 09:04:10;;;;;;;10.07;4.50;;;10.50;99.90;;;;;;5074759;28;20828;-66
2023/10/23 09:06:38;;;;;;;11.73;3.67;;;10.70;99.90;;;;;;5075194;28;20460;-66
2023/10/23 09:09:08;;;;;;;11.10;5.53;;;10.80;99.90;;;;;;5074379;28;20499;-66
2023/10/23 09:11:43;;;;;;;9.77;3.30;;;11.00;99.90;;;;;;5074391;28;20510;-66
2023/10/23 09:14:21;;;;;;;10.90;4.37;;;11.00;99.90;;;;;;5074597;28;20440;-66
2023/10/23 09:16:50;;;;;;;9.63;3.40;;;11.20;99.90;;;;;;5074856;28;20553;-67
2023/10/23 09:19:25;;;;;;;12.60;4.27;;;11.40;99.90;;;;;;5066872;28;20531;-67
2023/10/23 09:21:54;;;;;;;9.70;4.00;;;11.30;99.90;;;;;;5074242;28;20438;-67
2023/10/23 09:24:24;;;;;;;11.73;3.80;;;11.20;99.90;;;;;;5074791;28;20445;-67
2023/10/23 09:26:52;;;;;;;11.10;4.23;;;11.00;99.90;;;;;;5074695;28;20526;-67
2023/10/23 09:29:23;;;;;;;11.97;4.17;;;11.00;99.90;;;;;;5073106;28;20450;-68
2023/10/23 09:31:53;;;;;;;12.73;4.23;;;11.00;99.90;;;;;;5071197;28;20449;-66
2023/10/23 09:34:22;;;;;;;10.17;3.90;;;11.00;99.90;;;;;;5071119;28;20467;-67
2023/10/23 09:36:51;;;;;;;12.93;3.97;;;10.90;99.90;;;;;;5071727;28;20459;-67
2023/10/23 09:39:21;;;;;;;11.97;3.80;;;10.90;99.90;;;;;;5071502;28;20441;-67
2023/10/23 09:41:51;;;;;;;9.73;4.00;;;11.10;99.90;;;;;;5071231;28;20948;-67
2023/10/23 09:44:19;;;;;;;9.53;3.90;;;11.30;99.90;;;;;;5063326;28;20453;-65
2023/10/23 09:46:50;;;;;;;10.10;4.03;;;11.30;99.90;;;;;;5071154;28;20493;-65
2023/10/23 09:49:20;;;;;;;10.13;3.50;;;11.30;99.90;;;;;;5063121;28;20471;-64
2023/10/23 09:51:49;;;;;;;10.60;3.60;;;11.30;99.90;;;;;;5070947;28;20886;-68
2023/10/23 09:54:20;;;;;;;12.23;3.90;;;11.60;99.90;;;;;;5064836;28;20613;-67
2023/10/23 09:56:52;;;;;;;11.67;4.20;;;11.60;99.90;;;;;;5071270;28;20469;-68
2023/10/23 09:59:23;;;;;;;10.90;4.37;;;11.70;99.90;;;;;;5071196;28;20805;-67
2023/10/23 10:01:51;;;;;;;14.00;4.47;;;11.80;99.90;;;;;;5070894;28;20446;-68
2023/10/23 10:04:26;;;;;;;11.90;4.60;;;11.50;99.90;;;;;;5070869;28;20808;-68
2023/10/23 10:07:00;;;;;;;10.97;4.23;;;11.40;99.90;;;;;;5070853;28;20698;-67
2023/10/23 10:09:29;;;;;;;10.83;4.77;;;11.20;99.90;;;;;;5070780;28;20439;-67
2023/10/23 10:12:00;;;;;;;10.73;4.33;;;11.10;99.90;;;;;;5070252;28;20906;-67
2023/10/23 10:14:29;;;;;;;10.27;4.20;;;11.00;99.90;;;;;;5070893;28;20481;-67
2023/10/23 10:16:59;;;;;;;10.87;4.67;;;11.00;99.90;;;;;;5070403;28;20552;-66
2023/10/23 10:19:28;;;;;;;25.53;5.70;;;11.10;99.90;;;;;;5070778;28;20442;-67
2023/10/23 10:22:04;;;;;;;11.70;4.70;;;11.30;99.90;;;;;;5070060;28;20442;-67
2023/10/23 10:24:34;;;;;;;10.00;4.30;;;11.30;99.90;;;;;;5070408;28;20780;-67
2023/10/23 10:27:05;;;;;;;9.13;4.30;;;11.30;99.90;;;;;;5070472;28;20477;-67
2023/10/23 10:29:34;;;;;;;9.40;3.80;;;11.40;99.90;;;;;;5070608;28;20442;-68
2023/10/23 10:32:05;;;;;;;10.80;4.00;;;11.50;99.90;;;;;;5069943;28;20442;-67
2023/10/23 10:34:51;;;;;;;10.37;4.23;;;11.50;99.90;;;;;;5070382;28;20775;-67
2023/10/23 10:37:25;;;;;;;10.60;4.10;;;11.60;99.90;;;;;;5062904;28;20451;-68
2023/10/23 10:40:11;;;;;;;13.27;6.70;;;11.90;99.90;;;;;;5070157;28;21008;-68
2023/10/23 10:42:40;;;;;;;12.63;4.00;;;12.00;99.90;;;;;;5068977;28;20797;-68
2023/10/23 10:45:19;;;;;;;9.60;3.73;;;12.20;99.90;;;;;;5069645;28;20504;-68
2023/10/23 10:47:51;;;;;;;9.37;3.83;;;12.20;99.90;;;;;;5070448;28;20436;-67
2023/10/23 10:50:34;;;;;;;8.10;3.13;;;12.30;99.90;;;;;;5070575;28;20559;-66
2023/10/23 10:53:03;;;;;;;9.00;2.93;;;12.50;99.90;;;;;;5069942;28;20446;-67
2023/10/23 10:55:32;;;;;;;12.97;3.50;;;12.40;99.90;;;;;;5070048;28;20546;-67
2023/10/23 10:58:03;;;;;;;9.53;3.50;;;12.30;99.90;;;;;;5070713;28;20499;-68
2023/10/23 11:00:32;;;;;;;8.77;3.10;;;12.30;99.90;;;;;;5070917;28;20467;-67
2023/10/23 11:03:01;;;;;;;8.70;3.60;;;12.30;99.90;;;;;;5069927;28;20452;-68
2023/10/23 11:05:29;;;;;;;9.70;3.40;;;12.30;99.90;;;;;;5069871;28;20471;-66
2023/10/23 11:07:57;;;;;;;9.70;2.90;;;12.30;99.90;;;;;;5069643;28;20832;-65
2023/10/23 11:10:25;;;;;;;9.97;3.30;;;12.40;99.90;;;;;;5070109;28;20536;-66
2023/10/23 11:12:53;;;;;;;11.97;3.20;;;12.40;99.90;;;;;;5069626;28;20442;-66
2023/10/23 11:15:22;;;;;;;9.83;2.77;;;12.60;99.90;;;;;;5061519;28;20463;-66
2023/10/23 11:17:50;;;;;;;10.20;3.60;;;12.80;99.90;;;;;;5069547;28;20533;-66
2023/10/23 11:20:18;;;;;;;9.27;2.80;;;12.90;99.90;;;;;;5069240;28;20541;-65
2023/10/23 11:22:48;;;;;;;9.60;3.10;;;13.00;99.90;;;;;;5069274;28;20458;-67
2023/10/23 11:25:17;;;;;;;11.30;3.50;;;13.10;99.90;;;;;;5068983;28;20488;-68
2023/10/23 11:27:51;;;;;;;11.73;3.80;;;13.30;99.90;;;;;;5069500;28;20532;-67
2023/10/23 11:30:19;;;;;;;11.40;4.00;;;13.30;99.90;;;;;;5069136;28;20443;-68
2023/10/23 11:32:51;;;;;;;11.57;4.40;;;13.00;99.90;;;;;;5069044;28;20451;-67
2023/10/23 11:35:19;;;;;;;9.30;3.30;;;12.80;99.90;;;;;;5068962;28;20460;-67
2023/10/23 11:37:48;;;;;;;9.80;3.17;;;12.90;99.90;;;;;;5069214;28;20500;-67
2023/10/23 11:40:21;;;;;;;8.43;3.10;;;12.90;99.90;;;;;;5069215;28;20574;-67
2023/10/23 11:42:53;;;;;;;11.77;3.30;;;12.80;99.90;;;;;;5068879;28;20446;-68
2023/10/23 11:45:22;;;;;;;8.57;2.80;;;12.90;99.90;;;;;;5069180;28;20501;-67
2023/10/23 11:47:52;;;;;;;11.03;2.97;;;13.00;99.90;;;;;;5069053;28;20444;-67
2023/10/23 11:50:21;;;;;;;10.60;3.27;;;13.20;99.90;;;;;;5069047;28;20439;-67
2023/10/23 11:52:50;;;;;;;9.83;2.67;;;13.50;99.90;;;;;;5068444;28;20470;-68
2023/10/23 11:55:19;;;;;;;10.57;3.10;;;13.70;99.90;;;;;;5068709;28;20439;-68
2023/10/23 11:57:50;;;;;;;10.00;3.53;;;13.80;99.90;;;;;;5068892;28;20532;-67
2023/10/23 12:00:20;;;;;;;8.90;2.87;;;13.90;99.90;;;;;;5068708;28;20933;-67
2023/10/23 12:02:49;;;;;;;14.93;3.23;;;14.10;99.90;;;;;;5069148;28;20545;-67
2023/10/23 12:05:19;;;;;;;9.60;3.40;;;14.10;99.90;;;;;;5068751;28;20454;-67
2023/10/23 12:07:49;;;;;;;9.80;3.00;;;14.10;99.90;;;;;;5069066;28;20443;-68
2023/10/23 12:10:18;;;;;;;8.50;3.00;;;14.20;99.90;;;;;;5068392;28;20543;-68
2023/10/23 12:12:46;;;;;;;10.23;3.47;;;14.30;99.90;;;;;;5068332;28;20482;-67
2023/10/23 12:15:16;;;;;;;9.90;3.20;;;14.10;99.90;;;;;;5068429;28;20447;-67
2023/10/23 12:17:44;;;;;;;12.77;3.60;;;13.70;99.90;;;;;;5068577;28;20531;-67
2023/10/23 12:20:14;;;;;;;11.60;3.67;;;13.40;99.90;;;;;;5068453;28;20452;-68
2023/10/23 12:22:45;;;;;;;16.70;4.03;;;13.30;99.90;;;;;;5068332;28;20443;-68
2023/10/23 12:25:14;;;;;;;10.40;3.60;;;13.30;99.90;;;;;;5069558;28;20439;-67
2023/10/23 12:27:42;;;;;;;9.60;3.13;;;13.30;99.90;;;;;;5068510;28;20946;-67
2023/10/23 12:30:12;;;;;;;9.07;3.13;;;13.10;99.90;;;;;;5068430;28;20451;-67
2023/10/23 12:32:48;;;;;;;8.63;3.10;;;13.10;99.90;;;;;;5068190;28;20959;-68
2023/10/23 12:35:36;;;;;;;8.17;3.10;;;13.20;99.90;;;;;;5061898;28;20553;-68
2023/10/23 12:38:05;;;;;;;12.17;3.30;;;13.20;99.90;;;;;;5068527;28;20508;-68
2023/10/23 12:40:33;;;;;;;11.73;3.10;;;13.20;99.90;;;;;;5068494;28;20471;-68
2023/10/23 12:43:04;;;;;;;10.17;3.00;;;13.30;99.90;;;;;;5068119;28;20529;-67
2023/10/23 12:45:32;;;;;;;8.90;2.90;;;13.30;99.90;;;;;;5068331;28;20458;-66
2023/10/23 12:48:00;;;;;;;11.57;3.40;;;13.40;99.90;;;;;;5067911;28;20439;-67
2023/10/23 12:50:28;;;;;;;11.23;2.93;;;13.50;99.90;;;;;;5068382;28;20449;-67
2023/10/23 12:52:57;;;;;;;12.37;3.57;;;13.50;99.90;;;;;;5067769;28;20477;-68
2023/10/23 12:55:26;;;;;;;10.40;2.70;;;13.60;99.90;;;;;;5060041;28;20495;-67
2023/10/23 12:57:54;;;;;;;9.40;3.20;;;13.70;99.90;;;;;;5067944;28;20531;-66